Time;durP1;ratioP1;P1;durP2;ratioP2;P2;SDS_P1;SDS_P2;PMS_P1;PMS_P2;Temp;Humidity;BMP_temperature;BMP_pressure;BME280_temperature;BME280_humidity;BME280_pressure;Samples;Min_cycle;Max_cycle;Signal;HPM_P1;HPM_P2
2023/01/05 00:29:23;;;;;;;6.13;3.10;;;;;;;6.68;93.14;100734.34;31586044;28;20057;-76
2023/01/05 00:44:24;;;;;;;7.67;3.87;;;;;;;6.63;93.70;100715.81;31569854;28;20048;-76
2023/01/05 00:59:26;;;;;;;4.80;2.93;;;;;;;6.49;95.11;100682.22;31599627;28;20117;-76
2023/01/05 01:14:28;;;;;;;4.27;2.10;;;;;;;6.37;94.23;100649.41;31591947;28;20098;-75
2023/01/05 01:29:30;;;;;;;3.93;2.30;;;;;;;6.19;97.05;100638.50;31612937;28;20056;-77
2023/01/05 01:44:56;;;;;;;3.50;2.67;;;;;;;6.14;96.60;100620.00;31593493;28;20117;-77
2023/01/05 02:00:01;;;;;;;5.70;2.90;;;;;;;6.07;98.06;100603.75;31608428;28;20496;-76
2023/01/05 02:15:40;;;;;;;6.33;2.80;;;;;;;6.12;95.79;100592.63;31636599;28;20109;-77
2023/01/05 02:30:58;;;;;;;12.30;3.90;;;;;;;5.99;94.33;100586.00;31592170;28;20044;-77
2023/01/05 02:46:00;;;;;;;7.13;3.30;;;;;;;5.92;95.91;100558.97;31574897;28;20394;-75
2023/01/05 03:01:07;;;;;;;6.10;3.07;;;;;;;5.97;97.94;100553.25;31579552;28;20138;-76
2023/01/05 03:16:13;;;;;;;6.50;2.80;;;;;;;5.78;100.00;100514.63;31586064;28;20082;-76
2023/01/05 03:46:59;;;;;;;5.33;2.83;;;;;;;5.19;100.00;100461.13;31560751;28;20048;-76
2023/01/05 04:02:01;;;;;;;3.70;2.57;;;;;;;5.31;100.00;100458.13;31548777;28;20044;-76
2023/01/05 04:17:03;;;;;;;5.20;3.03;;;;;;;5.04;100.00;100420.63;31548135;28;20052;-76
2023/01/05 04:32:05;;;;;;;3.93;2.23;;;;;;;4.97;100.00;100417.09;31577616;28;20066;-75
2023/01/05 04:47:07;;;;;;;4.13;2.40;;;;;;;5.08;100.00;100413.34;31594279;28;20354;-77
2023/01/05 05:02:10;;;;;;;6.10;3.30;;;;;;;5.10;100.00;100376.09;31583751;28;20044;-78
2023/01/05 05:17:12;;;;;;;5.20;2.77;;;;;;;4.42;100.00;100341.72;31603368;28;20076;-75
2023/01/05 05:32:14;;;;;;;8.07;3.90;;;;;;;4.32;100.00;100342.41;31579800;28;20557;-77
2023/01/05 05:47:16;;;;;;;5.07;2.80;;;;;;;4.70;100.00;100335.81;31620085;28;20048;-76
2023/01/05 06:02:19;;;;;;;4.53;2.57;;;;;;;4.87;100.00;100300.22;31611162;28;20044;-78
2023/01/05 06:17:21;;;;;;;4.27;3.03;;;;;;;4.61;100.00;100262.75;31607581;28;20059;-77
2023/01/05 06:32:23;;;;;;;7.73;4.83;;;;;;;4.42;100.00;100240.34;31604249;28;20055;-76
2023/01/05 06:47:25;;;;;;;4.77;3.47;;;;;;;4.44;100.00;100208.50;31604928;28;20467;-77
2023/01/05 07:02:27;;;;;;;5.30;3.13;;;;;;;4.44;100.00;100184.31;31663251;28;20077;-76
2023/01/05 10:37:00;;;;;;;10.27;4.23;;;;;;;6.46;100.00;99623.16;31658271;27;20415;-76
2023/01/05 10:52:16;;;;;;;9.47;3.30;;;;;;;6.55;100.00;99608.44;31585549;28;20060;-72
2023/01/05 11:07:18;;;;;;;10.73;4.37;;;;;;;6.57;100.00;99585.28;31566927;28;20048;-73
2023/01/05 11:22:26;;;;;;;6.07;3.43;;;;;;;6.67;100.00;99533.13;31569684;28;20409;-74
2023/01/05 11:37:29;;;;;;;9.10;4.13;;;;;;;6.83;100.00;99511.75;31493212;28;20538;-77
2023/01/05 11:52:35;;;;;;;14.93;5.47;;;;;;;7.09;100.00;99485.91;31474070;28;20060;-77
2023/01/05 12:07:42;;;;;;;10.73;5.40;;;;;;;7.23;100.00;99451.75;31486259;28;20107;-71
2023/01/05 12:23:06;;;;;;;11.70;5.70;;;;;;;7.19;100.00;99414.78;31472614;28;20489;-73
2023/01/05 12:38:19;;;;;;;9.47;5.73;;;;;;;7.43;100.00;99379.66;31473864;28;20056;-73
2023/01/05 12:53:34;;;;;;;11.60;5.37;;;;;;;7.53;100.00;99376.78;31482878;28;20047;-73
2023/01/05 13:08:44;;;;;;;18.70;6.20;;;;;;;7.70;100.00;99366.81;31481222;28;20052;-71
2023/01/05 13:23:50;;;;;;;14.57;8.00;;;;;;;7.80;100.00;99365.81;31483684;28;20052;-72
2023/01/05 13:39:28;;;;;;;16.90;8.13;;;;;;;7.79;100.00;99342.69;31453010;28;20063;-73
2023/01/05 13:54:38;;;;;;;16.47;7.97;;;;;;;7.81;100.00;99302.50;31460934;28;20052;-72
2023/01/05 14:09:56;;;;;;;20.53;7.93;;;;;;;7.67;100.00;99302.78;31471489;28;20075;-75
2023/01/05 14:25:18;;;;;;;18.10;8.47;;;;;;;7.51;100.00;99278.44;31471386;28;20057;-77
2023/01/05 14:40:36;;;;;;;19.07;8.90;;;;;;;7.48;100.00;99260.38;31472574;28;20481;-71
2023/01/05 14:55:51;;;;;;;20.27;9.37;;;;;;;7.54;100.00;99245.22;31469646;28;20505;-72
2023/01/05 15:11:38;;;;;;;24.50;10.63;;;;;;;7.63;100.00;99226.47;31489657;28;20098;-77
2023/01/05 15:26:58;;;;;;;17.23;7.97;;;;;;;7.50;100.00;99182.41;31482601;28;20106;-76
2023/01/05 15:42:06;;;;;;;19.47;9.90;;;;;;;7.45;100.00;99151.25;31486712;28;20111;-77
2023/01/05 15:57:19;;;;;;;19.37;9.43;;;;;;;7.36;100.00;99148.34;31469187;28;20049;-78
2023/01/05 16:12:23;;;;;;;20.43;8.43;;;;;;;7.30;100.00;99127.69;31476403;28;20061;-76
2023/01/05 19:33:09;;;;;;;33.47;15.23;;;;;;;7.68;100.00;97440.78;31981184;27;20401;-79
2023/01/05 19:48:12;;;;;;;34.67;15.27;;;;;;;8.26;100.00;97952.88;31937123;27;20148;-77
2023/01/05 20:03:14;;;;;;;41.47;15.43;;;;;;;7.94;100.00;98291.25;31934822;27;20119;-78
2023/01/05 20:18:16;;;;;;;55.10;23.83;;;;;;;8.07;100.00;98383.78;31965452;27;20051;-77
2023/01/05 20:33:18;;;;;;;40.70;15.73;;;;;;;8.12;100.00;98434.56;31879678;27;20640;-79
2023/01/05 20:48:20;;;;;;;31.53;14.53;;;;;;;7.96;100.00;98454.44;31856289;27;20108;-71
2023/01/05 21:03:22;;;;;;;37.13;15.47;;;;;;;8.04;100.00;98481.94;31832084;27;20058;-74
2023/01/05 21:18:25;;;;;;;37.37;13.80;;;;;;;8.01;100.00;98485.53;31835605;27;20078;-73
2023/01/05 21:33:27;;;;;;;38.03;14.90;;;;;;;8.10;100.00;98474.78;31834319;27;20540;-73
2023/01/05 21:48:29;;;;;;;39.60;14.27;;;;;;;8.15;100.00;98493.13;31838409;27;20043;-73
2023/01/05 22:03:31;;;;;;;35.23;13.93;;;;;;;8.20;100.00;98520.38;31837242;27;20051;-73
2023/01/05 22:18:33;;;;;;;36.57;14.50;;;;;;;8.26;100.00;98553.00;31830644;27;20511;-72
2023/01/05 22:33:38;;;;;;;31.37;14.07;;;;;;;8.46;100.00;98582.47;31831694;27;20481;-73
2023/01/05 22:48:43;;;;;;;29.83;12.70;;;;;;;8.35;100.00;98577.41;31857454;27;20055;-73
2023/01/05 23:03:44;;;;;;;21.20;11.03;;;;;;;8.22;100.00;98587.50;31835184;27;20054;-72
2023/01/05 23:18:48;;;;;;;22.23;10.60;;;;;;;8.47;100.00;98611.78;31859192;27;20104;-77
2023/01/05 23:33:50;;;;;;;23.30;9.77;;;;;;;8.28;100.00;98623.56;31863612;27;20495;-73
2023/01/05 23:48:53;;;;;;;18.77;8.17;;;;;;;8.51;100.00;98644.81;31840621;27;20047;-72
